sensor_id;sensor_type;location;lat;lon;timestamp;temperature;humidity
41290;DHT22;36117;46.680;11.154;2022-07-23T00:00:47;32.00;42.70
41290;DHT22;36117;46.680;11.154;2022-07-23T00:03:13;31.00;41.90
41290;DHT22;36117;46.680;11.154;2022-07-23T00:05:39;32.20;41.90
41290;DHT22;36117;46.680;11.154;2022-07-23T00:08:06;32.50;41.70
41290;DHT22;36117;46.680;11.154;2022-07-23T00:10:33;32.60;41.30
41290;DHT22;36117;46.680;11.154;2022-07-23T00:13:02;32.70;41.70
41290;DHT22;36117;46.680;11.154;2022-07-23T00:15:27;32.60;41.70
41290;DHT22;36117;46.680;11.154;2022-07-23T00:17:53;32.40;41.90
41290;DHT22;36117;46.680;11.154;2022-07-23T00:20:19;32.50;41.50
41290;DHT22;36117;46.680;11.154;2022-07-23T00:22:49;32.50;41.70
41290;DHT22;36117;46.680;11.154;2022-07-23T00:25:16;32.50;41.30
41290;DHT22;36117;46.680;11.154;2022-07-23T00:27:42;32.50;41.20
41290;DHT22;36117;46.680;11.154;2022-07-23T00:30:09;32.60;41.20
41290;DHT22;36117;46.680;11.154;2022-07-23T00:32:48;32.60;41.10
41290;DHT22;36117;46.680;11.154;2022-07-23T00:35:15;32.50;41.30
41290;DHT22;36117;46.680;11.154;2022-07-23T00:37:41;32.40;41.30
41290;DHT22;36117;46.680;11.154;2022-07-23T00:40:08;32.30;41.40
41290;DHT22;36117;46.680;11.154;2022-07-23T00:42:34;32.30;41.20
41290;DHT22;36117;46.680;11.154;2022-07-23T00:45:00;32.20;41.70
41290;DHT22;36117;46.680;11.154;2022-07-23T00:47:26;32.20;41.80
41290;DHT22;36117;46.680;11.154;2022-07-23T00:49:52;32.10;42.20
41290;DHT22;36117;46.680;11.154;2022-07-23T00:52:18;32.10;42.90
41290;DHT22;36117;46.680;11.154;2022-07-23T00:54:44;32.10;43.00
41290;DHT22;36117;46.680;11.154;2022-07-23T00:57:10;32.10;43.00
41290;DHT22;36117;46.680;11.154;2022-07-23T00:59:38;32.20;43.30
41290;DHT22;36117;46.680;11.154;2022-07-23T01:02:07;32.10;43.50
41290;DHT22;36117;46.680;11.154;2022-07-23T01:04:33;31.90;43.80
41290;DHT22;36117;46.680;11.154;2022-07-23T01:07:00;31.70;44.80
41290;DHT22;36117;46.680;11.154;2022-07-23T01:09:26;31.70;44.20
41290;DHT22;36117;46.680;11.154;2022-07-23T01:11:55;31.80;44.00
41290;DHT22;36117;46.680;11.154;2022-07-23T01:14:21;31.60;44.10
41290;DHT22;36117;46.680;11.154;2022-07-23T01:16:48;31.60;44.30
41290;DHT22;36117;46.680;11.154;2022-07-23T01:19:16;31.70;44.30
41290;DHT22;36117;46.680;11.154;2022-07-23T01:21:43;31.70;43.90
41290;DHT22;36117;46.680;11.154;2022-07-23T01:24:10;31.80;43.30
41290;DHT22;36117;46.680;11.154;2022-07-23T01:26:38;31.60;42.30
41290;DHT22;36117;46.680;11.154;2022-07-23T01:29:04;31.50;42.90
41290;DHT22;36117;46.680;11.154;2022-07-23T01:31:31;31.10;42.90
41290;DHT22;36117;46.680;11.154;2022-07-23T01:34:06;31.50;42.80
41290;DHT22;36117;46.680;11.154;2022-07-23T01:36:36;31.40;42.40
41290;DHT22;36117;46.680;11.154;2022-07-23T01:39:04;31.30;43.80
41290;DHT22;36117;46.680;11.154;2022-07-23T01:41:30;31.30;44.30
41290;DHT22;36117;46.680;11.154;2022-07-23T01:43:56;31.20;44.30
41290;DHT22;36117;46.680;11.154;2022-07-23T01:46:22;31.10;44.40
41290;DHT22;36117;46.680;11.154;2022-07-23T01:48:48;31.10;44.30
41290;DHT22;36117;46.680;11.154;2022-07-23T01:51:16;31.40;44.00
41290;DHT22;36117;46.680;11.154;2022-07-23T01:53:42;31.60;43.90
41290;DHT22;36117;46.680;11.154;2022-07-23T01:56:08;31.40;44.20
41290;DHT22;36117;46.680;11.154;2022-07-23T01:58:33;31.50;44.30
41290;DHT22;36117;46.680;11.154;2022-07-23T02:00:59;31.40;43.90
41290;DHT22;36117;46.680;11.154;2022-07-23T02:03:25;31.60;43.50
41290;DHT22;36117;46.680;11.154;2022-07-23T02:05:51;31.70;43.30
41290;DHT22;36117;46.680;11.154;2022-07-23T02:08:18;31.70;42.90
41290;DHT22;36117;46.680;11.154;2022-07-23T02:10:44;31.80;43.10
41290;DHT22;36117;46.680;11.154;2022-07-23T02:13:11;31.80;43.40
41290;DHT22;36117;46.680;11.154;2022-07-23T02:15:37;31.70;44.10
41290;DHT22;36117;46.680;11.154;2022-07-23T02:18:02;31.70;44.20
41290;DHT22;36117;46.680;11.154;2022-07-23T02:20:28;31.70;43.90
41290;DHT22;36117;46.680;11.154;2022-07-23T02:22:54;31.70;43.70
41290;DHT22;36117;46.680;11.154;2022-07-23T02:25:20;31.80;42.80
41290;DHT22;36117;46.680;11.154;2022-07-23T02:27:45;31.80;42.30
41290;DHT22;36117;46.680;11.154;2022-07-23T02:30:11;31.70;42.80
41290;DHT22;36117;46.680;11.154;2022-07-23T02:32:37;31.80;43.20
41290;DHT22;36117;46.680;11.154;2022-07-23T02:35:05;31.80;43.00
41290;DHT22;36117;46.680;11.154;2022-07-23T02:37:32;31.80;42.90
41290;DHT22;36117;46.680;11.154;2022-07-23T02:39:57;31.90;42.90
41290;DHT22;36117;46.680;11.154;2022-07-23T02:42:23;32.00;42.80
41290;DHT22;36117;46.680;11.154;2022-07-23T02:44:50;31.90;42.80
41290;DHT22;36117;46.680;11.154;2022-07-23T02:47:16;31.70;43.00
41290;DHT22;36117;46.680;11.154;2022-07-23T02:49:42;31.70;43.20
41290;DHT22;36117;46.680;11.154;2022-07-23T02:52:08;31.60;43.80
41290;DHT22;36117;46.680;11.154;2022-07-23T02:54:36;31.40;44.00
41290;DHT22;36117;46.680;11.154;2022-07-23T02:57:03;31.40;43.90
41290;DHT22;36117;46.680;11.154;2022-07-23T02:59:29;31.30;43.90
41290;DHT22;36117;46.680;11.154;2022-07-23T03:01:55;31.20;44.30
41290;DHT22;36117;46.680;11.154;2022-07-23T03:04:20;31.20;44.90
41290;DHT22;36117;46.680;11.154;2022-07-23T03:06:46;31.30;44.10
41290;DHT22;36117;46.680;11.154;2022-07-23T03:09:12;31.40;44.00
41290;DHT22;36117;46.680;11.154;2022-07-23T03:11:38;31.40;44.10
41290;DHT22;36117;46.680;11.154;2022-07-23T03:14:04;31.30;43.90
41290;DHT22;36117;46.680;11.154;2022-07-23T03:16:29;31.20;43.90
41290;DHT22;36117;46.680;11.154;2022-07-23T03:18:55;31.30;43.80
41290;DHT22;36117;46.680;11.154;2022-07-23T03:21:21;31.30;44.10
41290;DHT22;36117;46.680;11.154;2022-07-23T03:23:47;31.20;44.10
41290;DHT22;36117;46.680;11.154;2022-07-23T03:26:12;30.90;44.40
41290;DHT22;36117;46.680;11.154;2022-07-23T03:28:38;30.90;44.70
41290;DHT22;36117;46.680;11.154;2022-07-23T03:31:04;30.80;45.30
41290;DHT22;36117;46.680;11.154;2022-07-23T03:33:30;30.40;46.80
41290;DHT22;36117;46.680;11.154;2022-07-23T03:35:55;30.10;47.10
41290;DHT22;36117;46.680;11.154;2022-07-23T03:38:21;29.60;47.00
41290;DHT22;36117;46.680;11.154;2022-07-23T03:40:47;28.80;48.10
41290;DHT22;36117;46.680;11.154;2022-07-23T03:43:13;28.30;50.70
41290;DHT22;36117;46.680;11.154;2022-07-23T03:45:39;27.30;54.70
41290;DHT22;36117;46.680;11.154;2022-07-23T03:48:05;26.10;61.70
41290;DHT22;36117;46.680;11.154;2022-07-23T03:50:30;25.10;63.20
41290;DHT22;36117;46.680;11.154;2022-07-23T03:52:56;24.50;64.10
41290;DHT22;36117;46.680;11.154;2022-07-23T03:55:22;24.10;66.00
41290;DHT22;36117;46.680;11.154;2022-07-23T03:57:48;23.90;66.80
41290;DHT22;36117;46.680;11.154;2022-07-23T04:00:14;23.80;70.00
41290;DHT22;36117;46.680;11.154;2022-07-23T04:02:40;23.90;72.50
41290;DHT22;36117;46.680;11.154;2022-07-23T04:05:06;23.80;70.30
41290;DHT22;36117;46.680;11.154;2022-07-23T04:07:32;23.90;71.40
41290;DHT22;36117;46.680;11.154;2022-07-23T04:09:58;24.10;69.00
41290;DHT22;36117;46.680;11.154;2022-07-23T04:12:24;24.10;72.20
41290;DHT22;36117;46.680;11.154;2022-07-23T04:14:50;24.10;71.60
41290;DHT22;36117;46.680;11.154;2022-07-23T04:17:16;24.20;72.90
41290;DHT22;36117;46.680;11.154;2022-07-23T04:19:42;24.30;72.40
41290;DHT22;36117;46.680;11.154;2022-07-23T04:22:11;24.10;73.30
41290;DHT22;36117;46.680;11.154;2022-07-23T04:24:37;23.90;74.30
41290;DHT22;36117;46.680;11.154;2022-07-23T04:27:03;23.90;75.20
41290;DHT22;36117;46.680;11.154;2022-07-23T04:29:29;23.90;76.00
41290;DHT22;36117;46.680;11.154;2022-07-23T04:31:55;23.70;75.20
41290;DHT22;36117;46.680;11.154;2022-07-23T04:34:21;23.60;75.50
41290;DHT22;36117;46.680;11.154;2022-07-23T04:36:47;23.40;77.40
41290;DHT22;36117;46.680;11.154;2022-07-23T04:39:14;23.60;77.40
41290;DHT22;36117;46.680;11.154;2022-07-23T04:41:39;23.70;75.20
41290;DHT22;36117;46.680;11.154;2022-07-23T04:44:05;23.80;74.80
41290;DHT22;36117;46.680;11.154;2022-07-23T04:46:31;23.90;74.90
41290;DHT22;36117;46.680;11.154;2022-07-23T04:48:57;23.90;73.70
41290;DHT22;36117;46.680;11.154;2022-07-23T04:51:23;23.80;74.40
41290;DHT22;36117;46.680;11.154;2022-07-23T04:53:49;23.80;75.00
41290;DHT22;36117;46.680;11.154;2022-07-23T04:56:15;23.90;73.30
41290;DHT22;36117;46.680;11.154;2022-07-23T04:58:41;23.80;74.40
41290;DHT22;36117;46.680;11.154;2022-07-23T05:01:07;23.40;76.00
41290;DHT22;36117;46.680;11.154;2022-07-23T05:03:33;22.70;78.30
41290;DHT22;36117;46.680;11.154;2022-07-23T05:05:59;22.30;80.40
41290;DHT22;36117;46.680;11.154;2022-07-23T05:08:24;22.40;80.90
41290;DHT22;36117;46.680;11.154;2022-07-23T05:10:50;22.50;79.90
41290;DHT22;36117;46.680;11.154;2022-07-23T05:13:16;22.80;79.50
41290;DHT22;36117;46.680;11.154;2022-07-23T05:15:43;23.20;79.80
41290;DHT22;36117;46.680;11.154;2022-07-23T05:18:09;23.50;78.70
41290;DHT22;36117;46.680;11.154;2022-07-23T05:20:35;23.70;78.10
41290;DHT22;36117;46.680;11.154;2022-07-23T05:23:01;24.00;77.20
41290;DHT22;36117;46.680;11.154;2022-07-23T05:25:27;24.50;75.60
41290;DHT22;36117;46.680;11.154;2022-07-23T05:27:53;24.90;73.10
41290;DHT22;36117;46.680;11.154;2022-07-23T05:30:19;25.30;71.10
41290;DHT22;36117;46.680;11.154;2022-07-23T05:32:45;25.50;69.20
41290;DHT22;36117;46.680;11.154;2022-07-23T05:35:11;25.80;69.40
41290;DHT22;36117;46.680;11.154;2022-07-23T05:37:36;25.60;69.60
41290;DHT22;36117;46.680;11.154;2022-07-23T05:40:04;25.80;69.80
41290;DHT22;36117;46.680;11.154;2022-07-23T05:42:31;25.80;69.40
41290;DHT22;36117;46.680;11.154;2022-07-23T05:44:57;25.70;68.70
41290;DHT22;36117;46.680;11.154;2022-07-23T05:47:23;26.00;68.80
41290;DHT22;36117;46.680;11.154;2022-07-23T05:49:49;26.30;67.40
41290;DHT22;36117;46.680;11.154;2022-07-23T05:52:15;26.70;66.70
41290;DHT22;36117;46.680;11.154;2022-07-23T05:54:41;26.80;67.10
41290;DHT22;36117;46.680;11.154;2022-07-23T05:57:07;26.80;66.60
41290;DHT22;36117;46.680;11.154;2022-07-23T05:59:33;27.00;66.40
41290;DHT22;36117;46.680;11.154;2022-07-23T06:01:59;27.10;66.30
41290;DHT22;36117;46.680;11.154;2022-07-23T06:04:25;26.90;68.00
41290;DHT22;36117;46.680;11.154;2022-07-23T06:06:51;26.90;66.00
41290;DHT22;36117;46.680;11.154;2022-07-23T06:09:17;27.00;66.60
41290;DHT22;36117;46.680;11.154;2022-07-23T06:11:43;26.90;67.90
41290;DHT22;36117;46.680;11.154;2022-07-23T06:14:09;27.00;68.60
41290;DHT22;36117;46.680;11.154;2022-07-23T06:16:35;27.20;67.50
41290;DHT22;36117;46.680;11.154;2022-07-23T06:19:01;27.50;65.20
41290;DHT22;36117;46.680;11.154;2022-07-23T06:21:27;27.80;65.80
41290;DHT22;36117;46.680;11.154;2022-07-23T06:23:52;28.20;61.60
41290;DHT22;36117;46.680;11.154;2022-07-23T06:26:18;28.40;61.00
41290;DHT22;36117;46.680;11.154;2022-07-23T06:28:44;28.80;60.00
41290;DHT22;36117;46.680;11.154;2022-07-23T06:31:10;29.20;59.70
41290;DHT22;36117;46.680;11.154;2022-07-23T06:33:36;29.40;60.40
41290;DHT22;36117;46.680;11.154;2022-07-23T06:36:01;29.30;60.40
41290;DHT22;36117;46.680;11.154;2022-07-23T06:38:27;29.30;59.40
41290;DHT22;36117;46.680;11.154;2022-07-23T06:40:53;29.10;58.30
41290;DHT22;36117;46.680;11.154;2022-07-23T06:43:19;29.20;58.40
41290;DHT22;36117;46.680;11.154;2022-07-23T06:45:45;29.20;57.00
41290;DHT22;36117;46.680;11.154;2022-07-23T06:48:10;29.00;56.80
41290;DHT22;36117;46.680;11.154;2022-07-23T06:50:36;29.00;59.00
41290;DHT22;36117;46.680;11.154;2022-07-23T06:53:02;28.60;60.30
41290;DHT22;36117;46.680;11.154;2022-07-23T06:55:28;28.50;60.10
41290;DHT22;36117;46.680;11.154;2022-07-23T06:57:53;28.80;59.20
41290;DHT22;36117;46.680;11.154;2022-07-23T07:00:19;28.90;59.40
41290;DHT22;36117;46.680;11.154;2022-07-23T07:02:45;29.40;58.50
41290;DHT22;36117;46.680;11.154;2022-07-23T07:05:11;30.20;56.40
41290;DHT22;36117;46.680;11.154;2022-07-23T07:07:37;30.00;55.70
41290;DHT22;36117;46.680;11.154;2022-07-23T07:10:04;29.60;56.70
41290;DHT22;36117;46.680;11.154;2022-07-23T07:12:30;29.30;57.10
41290;DHT22;36117;46.680;11.154;2022-07-23T07:14:55;29.50;56.90
41290;DHT22;36117;46.680;11.154;2022-07-23T07:17:22;29.50;57.10
41290;DHT22;36117;46.680;11.154;2022-07-23T07:19:48;29.50;57.00
41290;DHT22;36117;46.680;11.154;2022-07-23T07:22:14;29.70;56.30
41290;DHT22;36117;46.680;11.154;2022-07-23T07:24:40;30.10;55.20
41290;DHT22;36117;46.680;11.154;2022-07-23T07:27:06;30.70;55.00
41290;DHT22;36117;46.680;11.154;2022-07-23T07:29:32;31.20;53.00
41290;DHT22;36117;46.680;11.154;2022-07-23T07:31:57;32.00;50.80
41290;DHT22;36117;46.680;11.154;2022-07-23T07:34:23;33.40;49.10
41290;DHT22;36117;46.680;11.154;2022-07-23T07:36:49;34.50;46.20
41290;DHT22;36117;46.680;11.154;2022-07-23T07:39:15;35.50;44.90
41290;DHT22;36117;46.680;11.154;2022-07-23T07:41:41;34.90;45.40
41290;DHT22;36117;46.680;11.154;2022-07-23T07:44:07;34.70;44.60
41290;DHT22;36117;46.680;11.154;2022-07-23T07:46:33;34.80;43.80
41290;DHT22;36117;46.680;11.154;2022-07-23T07:48:59;34.40;44.00
41290;DHT22;36117;46.680;11.154;2022-07-23T07:51:25;33.40;45.40
41290;DHT22;36117;46.680;11.154;2022-07-23T07:53:52;32.10;46.30
41290;DHT22;36117;46.680;11.154;2022-07-23T07:56:18;31.00;49.30
41290;DHT22;36117;46.680;11.154;2022-07-23T07:58:44;30.30;51.70
41290;DHT22;36117;46.680;11.154;2022-07-23T08:01:10;29.70;52.50
41290;DHT22;36117;46.680;11.154;2022-07-23T08:03:36;29.10;53.40
41290;DHT22;36117;46.680;11.154;2022-07-23T08:06:01;28.70;54.10
41290;DHT22;36117;46.680;11.154;2022-07-23T08:08:27;28.40;55.00
41290;DHT22;36117;46.680;11.154;2022-07-23T08:10:53;28.30;55.70
41290;DHT22;36117;46.680;11.154;2022-07-23T08:13:19;28.30;55.70
41290;DHT22;36117;46.680;11.154;2022-07-23T08:15:45;28.30;56.80
41290;DHT22;36117;46.680;11.154;2022-07-23T08:18:11;27.90;57.20
41290;DHT22;36117;46.680;11.154;2022-07-23T08:20:37;27.70;59.10
41290;DHT22;36117;46.680;11.154;2022-07-23T08:23:05;27.80;58.70
41290;DHT22;36117;46.680;11.154;2022-07-23T08:25:36;27.90;57.20
41290;DHT22;36117;46.680;11.154;2022-07-23T08:28:08;28.00;57.00
41290;DHT22;36117;46.680;11.154;2022-07-23T08:30:36;27.90;57.80
41290;DHT22;36117;46.680;11.154;2022-07-23T08:33:04;27.90;56.90
41290;DHT22;36117;46.680;11.154;2022-07-23T08:35:41;27.80;57.10
41290;DHT22;36117;46.680;11.154;2022-07-23T08:38:10;27.50;59.00
41290;DHT22;36117;46.680;11.154;2022-07-23T08:40:41;27.20;60.30
41290;DHT22;36117;46.680;11.154;2022-07-23T08:43:09;27.10;62.20
41290;DHT22;36117;46.680;11.154;2022-07-23T08:45:40;27.00;61.70
41290;DHT22;36117;46.680;11.154;2022-07-23T08:48:12;26.80;61.70
41290;DHT22;36117;46.680;11.154;2022-07-23T08:50:42;27.10;63.00
41290;DHT22;36117;46.680;11.154;2022-07-23T08:53:09;27.50;62.70
41290;DHT22;36117;46.680;11.154;2022-07-23T08:55:35;27.70;62.30
41290;DHT22;36117;46.680;11.154;2022-07-23T08:58:02;27.80;61.30
41290;DHT22;36117;46.680;11.154;2022-07-23T09:00:28;27.50;62.90
41290;DHT22;36117;46.680;11.154;2022-07-23T09:02:54;27.40;63.50
41290;DHT22;36117;46.680;11.154;2022-07-23T09:05:21;27.30;64.50
41290;DHT22;36117;46.680;11.154;2022-07-23T09:16:16;30.90;54.60
41290;DHT22;36117;46.680;11.154;2022-07-23T09:18:48;31.90;51.90
41290;DHT22;36117;46.680;11.154;2022-07-23T09:23:46;35.80;44.30
41290;DHT22;36117;46.680;11.154;2022-07-23T09:26:45;37.70;42.50
41290;DHT22;36117;46.680;11.154;2022-07-23T09:29:23;38.30;40.30
41290;DHT22;36117;46.680;11.154;2022-07-23T09:32:01;38.80;39.00
41290;DHT22;36117;46.680;11.154;2022-07-23T09:34:31;38.30;38.00
41290;DHT22;36117;46.680;11.154;2022-07-23T09:37:14;37.40;40.00
41290;DHT22;36117;46.680;11.154;2022-07-23T09:39:42;36.90;39.30
41290;DHT22;36117;46.680;11.154;2022-07-23T09:44:46;36.40;40.40
41290;DHT22;36117;46.680;11.154;2022-07-23T09:47:12;37.00;40.30
41290;DHT22;36117;46.680;11.154;2022-07-23T09:49:38;37.70;39.30
41290;DHT22;36117;46.680;11.154;2022-07-23T09:52:05;37.70;38.40
41290;DHT22;36117;46.680;11.154;2022-07-23T09:54:36;37.00;39.00
41290;DHT22;36117;46.680;11.154;2022-07-23T09:57:12;37.20;38.30
41290;DHT22;36117;46.680;11.154;2022-07-23T09:59:44;38.00;36.90
41290;DHT22;36117;46.680;11.154;2022-07-23T10:02:12;39.40;36.90
41290;DHT22;36117;46.680;11.154;2022-07-23T10:04:40;40.60;33.80
41290;DHT22;36117;46.680;11.154;2022-07-23T10:07:08;41.00;33.20
41290;DHT22;36117;46.680;11.154;2022-07-23T10:09:37;40.10;34.60
41290;DHT22;36117;46.680;11.154;2022-07-23T10:12:06;42.00;32.40
41290;DHT22;36117;46.680;11.154;2022-07-23T10:14:38;43.50;30.60
41290;DHT22;36117;46.680;11.154;2022-07-23T10:17:05;45.30;29.70
41290;DHT22;36117;46.680;11.154;2022-07-23T10:19:32;45.60;29.10
41290;DHT22;36117;46.680;11.154;2022-07-23T10:22:14;45.60;29.30
41290;DHT22;36117;46.680;11.154;2022-07-23T10:24:52;46.60;28.30
41290;DHT22;36117;46.680;11.154;2022-07-23T10:30:30;46.20;28.70
41290;DHT22;36117;46.680;11.154;2022-07-23T10:41:12;45.60;28.50
41290;DHT22;36117;46.680;11.154;2022-07-23T10:43:38;45.90;29.00
41290;DHT22;36117;46.680;11.154;2022-07-23T10:46:25;46.70;28.00
41290;DHT22;36117;46.680;11.154;2022-07-23T10:49:21;47.50;27.80
41290;DHT22;36117;46.680;11.154;2022-07-23T10:52:23;48.70;26.40
41290;DHT22;36117;46.680;11.154;2022-07-23T10:57:25;49.50;26.20
41290;DHT22;36117;46.680;11.154;2022-07-23T11:00:12;46.70;27.80
41290;DHT22;36117;46.680;11.154;2022-07-23T11:02:40;45.30;28.10
41290;DHT22;36117;46.680;11.154;2022-07-23T11:05:08;44.60;28.00
41290;DHT22;36117;46.680;11.154;2022-07-23T11:07:36;44.50;28.20
41290;DHT22;36117;46.680;11.154;2022-07-23T11:10:03;45.40;28.00
41290;DHT22;36117;46.680;11.154;2022-07-23T11:22:39;46.90;27.00
41290;DHT22;36117;46.680;11.154;2022-07-23T11:25:06;47.20;26.80
41290;DHT22;36117;46.680;11.154;2022-07-23T11:27:39;48.10;26.40
41290;DHT22;36117;46.680;11.154;2022-07-23T11:30:07;49.20;26.10
41290;DHT22;36117;46.680;11.154;2022-07-23T11:32:40;50.00;26.20
41290;DHT22;36117;46.680;11.154;2022-07-23T11:35:27;49.50;25.80
41290;DHT22;36117;46.680;11.154;2022-07-23T11:38:14;49.50;25.20
41290;DHT22;36117;46.680;11.154;2022-07-23T11:40:43;47.70;26.10
41290;DHT22;36117;46.680;11.154;2022-07-23T11:43:10;46.70;27.20
41290;DHT22;36117;46.680;11.154;2022-07-23T11:45:43;44.90;27.50
41290;DHT22;36117;46.680;11.154;2022-07-23T11:48:24;44.80;27.60
41290;DHT22;36117;46.680;11.154;2022-07-23T11:50:51;44.80;28.00
41290;DHT22;36117;46.680;11.154;2022-07-23T11:53:31;44.30;28.30
41290;DHT22;36117;46.680;11.154;2022-07-23T11:56:09;42.70;28.90
41290;DHT22;36117;46.680;11.154;2022-07-23T11:58:36;42.30;29.40
41290;DHT22;36117;46.680;11.154;2022-07-23T12:01:02;41.30;30.40
41290;DHT22;36117;46.680;11.154;2022-07-23T12:03:29;41.30;31.60
41290;DHT22;36117;46.680;11.154;2022-07-23T12:05:58;40.40;30.90
41290;DHT22;36117;46.680;11.154;2022-07-23T12:08:24;39.50;31.70
41290;DHT22;36117;46.680;11.154;2022-07-23T12:10:50;39.20;32.50
41290;DHT22;36117;46.680;11.154;2022-07-23T12:13:18;38.90;32.60
41290;DHT22;36117;46.680;11.154;2022-07-23T12:15:50;38.50;32.30
41290;DHT22;36117;46.680;11.154;2022-07-23T12:18:21;37.90;33.50
41290;DHT22;36117;46.680;11.154;2022-07-23T12:20:57;37.50;34.30
41290;DHT22;36117;46.680;11.154;2022-07-23T12:23:28;37.40;34.50
41290;DHT22;36117;46.680;11.154;2022-07-23T12:25:54;36.90;35.30
41290;DHT22;36117;46.680;11.154;2022-07-23T12:28:27;36.00;36.50
41290;DHT22;36117;46.680;11.154;2022-07-23T12:30:55;35.60;37.60
41290;DHT22;36117;46.680;11.154;2022-07-23T12:33:40;35.20;40.00
41290;DHT22;36117;46.680;11.154;2022-07-23T12:36:07;34.90;41.10
41290;DHT22;36117;46.680;11.154;2022-07-23T12:38:42;34.50;41.00
41290;DHT22;36117;46.680;11.154;2022-07-23T12:41:09;33.60;41.40
41290;DHT22;36117;46.680;11.154;2022-07-23T12:43:45;32.90;41.40
41290;DHT22;36117;46.680;11.154;2022-07-23T12:46:21;32.30;42.60
41290;DHT22;36117;46.680;11.154;2022-07-23T12:48:54;31.80;43.30
41290;DHT22;36117;46.680;11.154;2022-07-23T12:51:25;31.20;44.50
41290;DHT22;36117;46.680;11.154;2022-07-23T12:53:54;30.70;45.10
41290;DHT22;36117;46.680;11.154;2022-07-23T12:58:54;30.30;45.90
41290;DHT22;36117;46.680;11.154;2022-07-23T13:04:04;30.10;48.70
41290;DHT22;36117;46.680;11.154;2022-07-23T13:06:33;30.00;48.90
41290;DHT22;36117;46.680;11.154;2022-07-23T13:08:59;30.00;49.10
41290;DHT22;36117;46.680;11.154;2022-07-23T13:11:25;30.30;50.40
41290;DHT22;36117;46.680;11.154;2022-07-23T13:13:52;30.70;50.20
41290;DHT22;36117;46.680;11.154;2022-07-23T13:16:19;30.90;50.60
41290;DHT22;36117;46.680;11.154;2022-07-23T13:18:45;30.90;51.10
41290;DHT22;36117;46.680;11.154;2022-07-23T13:21:11;31.10;53.70
41290;DHT22;36117;46.680;11.154;2022-07-23T13:23:37;31.30;51.00
41290;DHT22;36117;46.680;11.154;2022-07-23T13:26:04;30.70;48.70
41290;DHT22;36117;46.680;11.154;2022-07-23T13:28:29;30.80;49.70
41290;DHT22;36117;46.680;11.154;2022-07-23T13:30:55;31.20;49.50
41290;DHT22;36117;46.680;11.154;2022-07-23T13:33:24;31.70;47.90
41290;DHT22;36117;46.680;11.154;2022-07-23T13:35:51;32.00;46.70
41290;DHT22;36117;46.680;11.154;2022-07-23T13:38:17;32.30;45.90
41290;DHT22;36117;46.680;11.154;2022-07-23T13:40:46;32.30;45.20
41290;DHT22;36117;46.680;11.154;2022-07-23T13:43:14;32.30;45.30
41290;DHT22;36117;46.680;11.154;2022-07-23T13:45:41;32.20;45.60
41290;DHT22;36117;46.680;11.154;2022-07-23T13:48:10;31.90;47.10
41290;DHT22;36117;46.680;11.154;2022-07-23T13:50:38;31.40;48.80
41290;DHT22;36117;46.680;11.154;2022-07-23T13:53:06;30.90;50.00
41290;DHT22;36117;46.680;11.154;2022-07-23T13:55:32;30.50;50.70
41290;DHT22;36117;46.680;11.154;2022-07-23T13:57:59;30.10;51.50
41290;DHT22;36117;46.680;11.154;2022-07-23T14:00:26;30.00;52.20
41290;DHT22;36117;46.680;11.154;2022-07-23T14:02:53;29.60;54.90
41290;DHT22;36117;46.680;11.154;2022-07-23T14:05:20;29.40;56.80
41290;DHT22;36117;46.680;11.154;2022-07-23T14:07:46;28.90;58.70
41290;DHT22;36117;46.680;11.154;2022-07-23T14:10:16;28.80;60.50
41290;DHT22;36117;46.680;11.154;2022-07-23T14:12:43;28.80;61.20
41290;DHT22;36117;46.680;11.154;2022-07-23T14:15:09;28.60;62.60
41290;DHT22;36117;46.680;11.154;2022-07-23T14:17:39;28.10;66.80
41290;DHT22;36117;46.680;11.154;2022-07-23T14:20:06;27.90;67.70
41290;DHT22;36117;46.680;11.154;2022-07-23T14:22:33;28.10;67.20
41290;DHT22;36117;46.680;11.154;2022-07-23T14:24:59;28.50;67.90
41290;DHT22;36117;46.680;11.154;2022-07-23T14:27:27;28.70;69.50
41290;DHT22;36117;46.680;11.154;2022-07-23T14:29:54;29.00;68.00
41290;DHT22;36117;46.680;11.154;2022-07-23T14:32:20;29.40;66.50
41290;DHT22;36117;46.680;11.154;2022-07-23T14:34:47;29.60;65.30
41290;DHT22;36117;46.680;11.154;2022-07-23T14:37:13;30.00;64.20
41290;DHT22;36117;46.680;11.154;2022-07-23T14:39:39;30.60;63.80
41290;DHT22;36117;46.680;11.154;2022-07-23T14:42:08;31.30;62.60
41290;DHT22;36117;46.680;11.154;2022-07-23T14:44:34;31.70;60.90
41290;DHT22;36117;46.680;11.154;2022-07-23T14:47:01;31.60;60.10
41290;DHT22;36117;46.680;11.154;2022-07-23T14:49:28;32.10;60.70
41290;DHT22;36117;46.680;11.154;2022-07-23T14:51:54;32.50;58.70
41290;DHT22;36117;46.680;11.154;2022-07-23T14:54:20;32.30;56.40
41290;DHT22;36117;46.680;11.154;2022-07-23T14:56:46;32.40;55.30
41290;DHT22;36117;46.680;11.154;2022-07-23T14:59:13;32.30;56.10
41290;DHT22;36117;46.680;11.154;2022-07-23T15:01:39;31.80;56.30
41290;DHT22;36117;46.680;11.154;2022-07-23T15:04:05;31.30;56.60
41290;DHT22;36117;46.680;11.154;2022-07-23T15:06:32;31.20;56.90
41290;DHT22;36117;46.680;11.154;2022-07-23T15:08:59;30.40;58.60
41290;DHT22;36117;46.680;11.154;2022-07-23T15:11:27;30.00;60.00
41290;DHT22;36117;46.680;11.154;2022-07-23T15:13:54;29.70;59.80
41290;DHT22;36117;46.680;11.154;2022-07-23T15:16:20;29.60;60.20
41290;DHT22;36117;46.680;11.154;2022-07-23T15:18:46;29.50;59.80
41290;DHT22;36117;46.680;11.154;2022-07-23T15:21:12;29.40;59.70
41290;DHT22;36117;46.680;11.154;2022-07-23T15:23:38;29.50;60.10
41290;DHT22;36117;46.680;11.154;2022-07-23T15:26:06;29.70;58.80
41290;DHT22;36117;46.680;11.154;2022-07-23T15:28:33;30.10;58.20
41290;DHT22;36117;46.680;11.154;2022-07-23T15:30:59;30.30;57.30
41290;DHT22;36117;46.680;11.154;2022-07-23T15:33:25;30.40;56.80
41290;DHT22;36117;46.680;11.154;2022-07-23T15:35:50;30.60;56.00
41290;DHT22;36117;46.680;11.154;2022-07-23T15:38:18;30.50;56.20
41290;DHT22;36117;46.680;11.154;2022-07-23T15:40:44;30.50;55.40
41290;DHT22;36117;46.680;11.154;2022-07-23T15:43:10;30.90;57.30
41290;DHT22;36117;46.680;11.154;2022-07-23T15:45:35;31.10;55.50
41290;DHT22;36117;46.680;11.154;2022-07-23T15:48:01;31.20;57.40
41290;DHT22;36117;46.680;11.154;2022-07-23T15:50:27;31.30;56.20
41290;DHT22;36117;46.680;11.154;2022-07-23T15:52:53;31.40;55.30
41290;DHT22;36117;46.680;11.154;2022-07-23T15:55:19;31.70;54.30
41290;DHT22;36117;46.680;11.154;2022-07-23T15:57:45;31.90;53.20
41290;DHT22;36117;46.680;11.154;2022-07-23T16:00:11;32.00;54.70